sensor_id;sensor_type;location;lat;lon;timestamp;P1;durP1;ratioP1;P2;durP2;ratioP2
18720;SDS011;9489;50.948;3.114;2023-06-14T00:01:46;9.63;;;8.52;;
18720;SDS011;9489;50.948;3.114;2023-06-14T00:04:12;10.73;;;9.65;;
18720;SDS011;9489;50.948;3.114;2023-06-14T00:06:38;11.30;;;9.63;;
18720;SDS011;9489;50.948;3.114;2023-06-14T00:09:04;11.80;;;10.60;;
18720;SDS011;9489;50.948;3.114;2023-06-14T00:11:33;14.25;;;11.23;;
18720;SDS011;9489;50.948;3.114;2023-06-14T00:13:58;11.50;;;9.48;;
18720;SDS011;9489;50.948;3.114;2023-06-14T00:16:24;10.20;;;9.30;;
18720;SDS011;9489;50.948;3.114;2023-06-14T00:18:49;11.77;;;10.60;;
18720;SDS011;9489;50.948;3.114;2023-06-14T00:21:16;14.00;;;12.60;;
18720;SDS011;9489;50.948;3.114;2023-06-14T00:23:42;13.88;;;10.73;;
18720;SDS011;9489;50.948;3.114;2023-06-14T00:26:08;13.00;;;11.23;;
18720;SDS011;9489;50.948;3.114;2023-06-14T00:28:34;12.77;;;11.40;;
18720;SDS011;9489;50.948;3.114;2023-06-14T00:30:59;13.85;;;12.13;;
18720;SDS011;9489;50.948;3.114;2023-06-14T00:33:25;12.90;;;11.75;;
18720;SDS011;9489;50.948;3.114;2023-06-14T00:35:51;13.02;;;11.68;;
18720;SDS011;9489;50.948;3.114;2023-06-14T00:38:19;12.40;;;10.52;;
18720;SDS011;9489;50.948;3.114;2023-06-14T00:40:45;9.95;;;9.05;;
18720;SDS011;9489;50.948;3.114;2023-06-14T00:43:10;10.77;;;9.65;;
18720;SDS011;9489;50.948;3.114;2023-06-14T00:45:36;12.18;;;10.93;;
18720;SDS011;9489;50.948;3.114;2023-06-14T00:48:02;8.68;;;8.00;;
18720;SDS011;9489;50.948;3.114;2023-06-14T00:50:31;10.20;;;9.30;;
18720;SDS011;9489;50.948;3.114;2023-06-14T00:52:58;11.63;;;10.63;;
18720;SDS011;9489;50.948;3.114;2023-06-14T00:55:26;10.10;;;9.00;;
18720;SDS011;9489;50.948;3.114;2023-06-14T00:57:52;10.80;;;9.48;;
18720;SDS011;9489;50.948;3.114;2023-06-14T01:00:18;12.18;;;10.98;;
18720;SDS011;9489;50.948;3.114;2023-06-14T01:02:44;12.45;;;11.45;;
18720;SDS011;9489;50.948;3.114;2023-06-14T01:05:11;9.88;;;9.07;;
18720;SDS011;9489;50.948;3.114;2023-06-14T01:08:01;13.45;;;11.95;;
18720;SDS011;9489;50.948;3.114;2023-06-14T01:10:41;12.07;;;10.98;;
18720;SDS011;9489;50.948;3.114;2023-06-14T01:15:58;15.40;;;13.85;;
18720;SDS011;9489;50.948;3.114;2023-06-14T01:18:24;13.98;;;12.60;;
18720;SDS011;9489;50.948;3.114;2023-06-14T01:20:52;13.52;;;12.32;;
18720;SDS011;9489;50.948;3.114;2023-06-14T01:23:20;13.15;;;11.98;;
18720;SDS011;9489;50.948;3.114;2023-06-14T01:25:47;12.35;;;11.07;;
18720;SDS011;9489;50.948;3.114;2023-06-14T01:28:18;11.50;;;10.52;;
18720;SDS011;9489;50.948;3.114;2023-06-14T01:30:46;11.75;;;10.65;;
18720;SDS011;9489;50.948;3.114;2023-06-14T01:33:15;12.13;;;11.07;;
18720;SDS011;9489;50.948;3.114;2023-06-14T01:35:44;13.70;;;12.30;;
18720;SDS011;9489;50.948;3.114;2023-06-14T01:38:10;11.50;;;10.40;;
18720;SDS011;9489;50.948;3.114;2023-06-14T01:40:38;12.10;;;10.90;;
18720;SDS011;9489;50.948;3.114;2023-06-14T01:43:05;13.68;;;12.32;;
18720;SDS011;9489;50.948;3.114;2023-06-14T01:45:32;12.80;;;11.75;;
18720;SDS011;9489;50.948;3.114;2023-06-14T01:47:59;12.65;;;11.45;;
18720;SDS011;9489;50.948;3.114;2023-06-14T01:50:28;12.25;;;11.05;;
18720;SDS011;9489;50.948;3.114;2023-06-14T01:52:55;12.40;;;11.23;;
18720;SDS011;9489;50.948;3.114;2023-06-14T01:55:21;12.50;;;11.27;;
18720;SDS011;9489;50.948;3.114;2023-06-14T01:57:47;12.77;;;11.48;;
18720;SDS011;9489;50.948;3.114;2023-06-14T02:00:13;11.52;;;10.50;;
18720;SDS011;9489;50.948;3.114;2023-06-14T02:02:40;12.20;;;11.07;;
18720;SDS011;9489;50.948;3.114;2023-06-14T02:05:06;14.60;;;13.18;;
18720;SDS011;9489;50.948;3.114;2023-06-14T02:07:31;15.57;;;14.15;;
18720;SDS011;9489;50.948;3.114;2023-06-14T02:09:58;14.23;;;12.02;;
18720;SDS011;9489;50.948;3.114;2023-06-14T02:12:24;15.10;;;13.52;;
18720;SDS011;9489;50.948;3.114;2023-06-14T02:14:50;15.55;;;14.05;;
18720;SDS011;9489;50.948;3.114;2023-06-14T02:17:16;15.38;;;13.82;;
18720;SDS011;9489;50.948;3.114;2023-06-14T02:19:42;15.52;;;13.93;;
18720;SDS011;9489;50.948;3.114;2023-06-14T02:22:08;15.70;;;14.18;;
18720;SDS011;9489;50.948;3.114;2023-06-14T02:24:33;15.82;;;14.32;;
18720;SDS011;9489;50.948;3.114;2023-06-14T02:27:00;17.35;;;15.65;;
18720;SDS011;9489;50.948;3.114;2023-06-14T02:29:26;17.80;;;16.02;;
18720;SDS011;9489;50.948;3.114;2023-06-14T02:31:52;17.98;;;16.15;;
18720;SDS011;9489;50.948;3.114;2023-06-14T02:34:18;17.67;;;15.88;;
18720;SDS011;9489;50.948;3.114;2023-06-14T02:36:45;20.42;;;17.23;;
18720;SDS011;9489;50.948;3.114;2023-06-14T02:39:11;18.42;;;16.52;;
18720;SDS011;9489;50.948;3.114;2023-06-14T02:41:37;16.85;;;14.82;;
18720;SDS011;9489;50.948;3.114;2023-06-14T02:44:03;19.33;;;16.67;;
18720;SDS011;9489;50.948;3.114;2023-06-14T02:46:29;18.90;;;17.10;;
18720;SDS011;9489;50.948;3.114;2023-06-14T02:48:54;19.60;;;17.15;;
18720;SDS011;9489;50.948;3.114;2023-06-14T02:51:20;16.67;;;15.02;;
18720;SDS011;9489;50.948;3.114;2023-06-14T02:53:47;15.95;;;14.35;;
18720;SDS011;9489;50.948;3.114;2023-06-14T02:56:12;18.70;;;16.80;;
18720;SDS011;9489;50.948;3.114;2023-06-14T02:58:38;19.27;;;17.35;;
18720;SDS011;9489;50.948;3.114;2023-06-14T03:01:05;17.73;;;15.88;;
18720;SDS011;9489;50.948;3.114;2023-06-14T03:03:32;18.05;;;16.15;;
18720;SDS011;9489;50.948;3.114;2023-06-14T03:05:58;19.67;;;17.75;;
18720;SDS011;9489;50.948;3.114;2023-06-14T03:08:29;20.17;;;17.48;;
18720;SDS011;9489;50.948;3.114;2023-06-14T03:10:55;19.15;;;17.38;;
18720;SDS011;9489;50.948;3.114;2023-06-14T03:13:21;18.10;;;16.30;;
18720;SDS011;9489;50.948;3.114;2023-06-14T03:15:47;18.95;;;17.05;;
18720;SDS011;9489;50.948;3.114;2023-06-14T03:18:15;17.83;;;16.13;;
18720;SDS011;9489;50.948;3.114;2023-06-14T03:20:41;16.23;;;14.63;;
18720;SDS011;9489;50.948;3.114;2023-06-14T03:23:10;15.82;;;14.43;;
18720;SDS011;9489;50.948;3.114;2023-06-14T03:25:37;16.15;;;14.55;;
18720;SDS011;9489;50.948;3.114;2023-06-14T03:28:06;18.17;;;16.38;;
18720;SDS011;9489;50.948;3.114;2023-06-14T03:30:32;15.52;;;14.15;;
18720;SDS011;9489;50.948;3.114;2023-06-14T03:32:57;15.90;;;14.50;;
18720;SDS011;9489;50.948;3.114;2023-06-14T03:35:26;17.20;;;15.65;;
18720;SDS011;9489;50.948;3.114;2023-06-14T03:37:52;15.75;;;14.05;;
18720;SDS011;9489;50.948;3.114;2023-06-14T03:40:18;15.93;;;14.32;;
18720;SDS011;9489;50.948;3.114;2023-06-14T03:42:44;14.98;;;13.57;;
18720;SDS011;9489;50.948;3.114;2023-06-14T03:45:09;16.92;;;15.43;;
18720;SDS011;9489;50.948;3.114;2023-06-14T03:47:36;15.43;;;13.98;;
18720;SDS011;9489;50.948;3.114;2023-06-14T03:50:02;15.77;;;14.27;;
18720;SDS011;9489;50.948;3.114;2023-06-14T03:52:28;16.33;;;14.85;;
18720;SDS011;9489;50.948;3.114;2023-06-14T03:54:54;15.63;;;14.20;;
18720;SDS011;9489;50.948;3.114;2023-06-14T03:57:21;15.73;;;14.15;;
18720;SDS011;9489;50.948;3.114;2023-06-14T03:59:48;16.58;;;14.90;;
18720;SDS011;9489;50.948;3.114;2023-06-14T04:02:14;17.13;;;14.07;;
18720;SDS011;9489;50.948;3.114;2023-06-14T04:04:43;15.55;;;14.02;;
18720;SDS011;9489;50.948;3.114;2023-06-14T04:07:13;15.82;;;14.30;;
18720;SDS011;9489;50.948;3.114;2023-06-14T04:09:39;15.70;;;14.25;;
18720;SDS011;9489;50.948;3.114;2023-06-14T04:12:05;15.77;;;14.27;;
18720;SDS011;9489;50.948;3.114;2023-06-14T04:14:34;14.98;;;13.25;;
18720;SDS011;9489;50.948;3.114;2023-06-14T04:17:00;16.38;;;14.82;;
18720;SDS011;9489;50.948;3.114;2023-06-14T04:19:26;16.50;;;13.63;;
18720;SDS011;9489;50.948;3.114;2023-06-14T04:21:52;14.02;;;12.82;;
18720;SDS011;9489;50.948;3.114;2023-06-14T04:24:18;15.50;;;14.02;;
18720;SDS011;9489;50.948;3.114;2023-06-14T04:26:44;15.40;;;13.80;;
18720;SDS011;9489;50.948;3.114;2023-06-14T04:29:10;15.18;;;13.57;;
18720;SDS011;9489;50.948;3.114;2023-06-14T04:31:42;16.80;;;15.18;;
18720;SDS011;9489;50.948;3.114;2023-06-14T04:34:09;14.90;;;13.50;;
18720;SDS011;9489;50.948;3.114;2023-06-14T04:36:41;15.38;;;13.70;;
18720;SDS011;9489;50.948;3.114;2023-06-14T04:39:14;14.02;;;12.60;;
18720;SDS011;9489;50.948;3.114;2023-06-14T04:41:40;14.18;;;12.73;;
18720;SDS011;9489;50.948;3.114;2023-06-14T04:44:06;13.93;;;12.02;;
18720;SDS011;9489;50.948;3.114;2023-06-14T04:46:32;10.88;;;9.77;;
18720;SDS011;9489;50.948;3.114;2023-06-14T04:48:58;12.80;;;11.60;;
18720;SDS011;9489;50.948;3.114;2023-06-14T04:51:27;11.80;;;10.80;;
18720;SDS011;9489;50.948;3.114;2023-06-14T04:53:57;12.75;;;11.65;;
18720;SDS011;9489;50.948;3.114;2023-06-14T04:56:24;12.73;;;11.48;;
18720;SDS011;9489;50.948;3.114;2023-06-14T04:58:52;11.27;;;10.18;;
18720;SDS011;9489;50.948;3.114;2023-06-14T05:01:18;12.10;;;10.90;;
18720;SDS011;9489;50.948;3.114;2023-06-14T05:03:46;12.05;;;10.68;;
18720;SDS011;9489;50.948;3.114;2023-06-14T05:06:13;13.70;;;11.85;;
18720;SDS011;9489;50.948;3.114;2023-06-14T05:08:39;11.70;;;10.65;;
18720;SDS011;9489;50.948;3.114;2023-06-14T05:11:05;12.50;;;11.30;;
18720;SDS011;9489;50.948;3.114;2023-06-14T05:13:30;12.90;;;11.80;;
18720;SDS011;9489;50.948;3.114;2023-06-14T05:15:57;11.88;;;10.55;;
18720;SDS011;9489;50.948;3.114;2023-06-14T05:18:24;11.45;;;10.23;;
18720;SDS011;9489;50.948;3.114;2023-06-14T05:20:50;11.65;;;10.65;;
18720;SDS011;9489;50.948;3.114;2023-06-14T05:23:16;12.52;;;11.02;;
18720;SDS011;9489;50.948;3.114;2023-06-14T05:25:45;11.23;;;10.13;;
18720;SDS011;9489;50.948;3.114;2023-06-14T05:28:11;10.15;;;9.30;;
18720;SDS011;9489;50.948;3.114;2023-06-14T05:30:37;12.68;;;11.40;;
18720;SDS011;9489;50.948;3.114;2023-06-14T05:33:04;13.23;;;11.27;;
18720;SDS011;9489;50.948;3.114;2023-06-14T05:35:30;11.75;;;10.70;;
18720;SDS011;9489;50.948;3.114;2023-06-14T05:37:56;12.85;;;11.18;;
18720;SDS011;9489;50.948;3.114;2023-06-14T05:40:21;12.27;;;11.07;;
18720;SDS011;9489;50.948;3.114;2023-06-14T05:42:47;11.70;;;10.63;;
18720;SDS011;9489;50.948;3.114;2023-06-14T05:45:12;12.85;;;11.57;;
18720;SDS011;9489;50.948;3.114;2023-06-14T05:47:40;11.45;;;10.40;;
18720;SDS011;9489;50.948;3.114;2023-06-14T05:50:06;11.50;;;10.50;;
18720;SDS011;9489;50.948;3.114;2023-06-14T05:52:32;12.02;;;10.93;;
18720;SDS011;9489;50.948;3.114;2023-06-14T05:54:57;12.38;;;11.27;;
18720;SDS011;9489;50.948;3.114;2023-06-14T05:57:23;12.02;;;10.82;;
18720;SDS011;9489;50.948;3.114;2023-06-14T05:59:48;11.55;;;10.38;;
18720;SDS011;9489;50.948;3.114;2023-06-14T06:02:15;12.13;;;11.13;;
18720;SDS011;9489;50.948;3.114;2023-06-14T06:04:41;10.10;;;9.27;;
18720;SDS011;9489;50.948;3.114;2023-06-14T06:07:06;12.05;;;10.60;;
18720;SDS011;9489;50.948;3.114;2023-06-14T06:09:32;15.10;;;10.65;;
18720;SDS011;9489;50.948;3.114;2023-06-14T06:11:58;10.98;;;10.10;;
18720;SDS011;9489;50.948;3.114;2023-06-14T06:14:24;11.93;;;10.73;;
18720;SDS011;9489;50.948;3.114;2023-06-14T06:16:50;12.30;;;11.10;;
18720;SDS011;9489;50.948;3.114;2023-06-14T06:19:18;13.15;;;11.30;;
18720;SDS011;9489;50.948;3.114;2023-06-14T06:21:43;14.40;;;11.55;;
18720;SDS011;9489;50.948;3.114;2023-06-14T06:24:09;12.05;;;10.85;;
18720;SDS011;9489;50.948;3.114;2023-06-14T06:26:35;14.45;;;10.80;;
18720;SDS011;9489;50.948;3.114;2023-06-14T06:29:00;11.93;;;10.82;;
18720;SDS011;9489;50.948;3.114;2023-06-14T06:31:26;12.90;;;10.40;;
18720;SDS011;9489;50.948;3.114;2023-06-14T06:33:52;11.50;;;10.38;;
18720;SDS011;9489;50.948;3.114;2023-06-14T06:36:19;15.27;;;10.52;;
18720;SDS011;9489;50.948;3.114;2023-06-14T06:38:47;12.50;;;11.27;;
18720;SDS011;9489;50.948;3.114;2023-06-14T06:41:13;10.52;;;9.63;;
18720;SDS011;9489;50.948;3.114;2023-06-14T06:43:38;11.30;;;9.98;;
18720;SDS011;9489;50.948;3.114;2023-06-14T06:46:04;12.02;;;10.77;;
18720;SDS011;9489;50.948;3.114;2023-06-14T06:48:30;11.10;;;9.90;;
18720;SDS011;9489;50.948;3.114;2023-06-14T06:50:55;10.52;;;9.55;;
18720;SDS011;9489;50.948;3.114;2023-06-14T06:53:21;10.10;;;9.23;;
18720;SDS011;9489;50.948;3.114;2023-06-14T06:55:48;10.85;;;9.82;;
18720;SDS011;9489;50.948;3.114;2023-06-14T06:58:14;10.55;;;9.55;;
18720;SDS011;9489;50.948;3.114;2023-06-14T07:00:39;10.23;;;9.32;;
18720;SDS011;9489;50.948;3.114;2023-06-14T07:03:05;12.25;;;10.95;;
18720;SDS011;9489;50.948;3.114;2023-06-14T07:05:31;10.73;;;9.93;;
18720;SDS011;9489;50.948;3.114;2023-06-14T07:07:57;11.20;;;10.02;;
18720;SDS011;9489;50.948;3.114;2023-06-14T07:10:22;11.43;;;10.27;;
18720;SDS011;9489;50.948;3.114;2023-06-14T07:12:49;10.90;;;9.82;;
18720;SDS011;9489;50.948;3.114;2023-06-14T07:15:15;10.18;;;9.27;;
18720;SDS011;9489;50.948;3.114;2023-06-14T07:17:41;12.00;;;10.77;;
18720;SDS011;9489;50.948;3.114;2023-06-14T07:20:07;10.52;;;9.63;;
18720;SDS011;9489;50.948;3.114;2023-06-14T07:22:37;11.27;;;10.40;;
18720;SDS011;9489;50.948;3.114;2023-06-14T07:25:04;11.85;;;10.80;;
18720;SDS011;9489;50.948;3.114;2023-06-14T07:27:30;11.05;;;9.95;;
18720;SDS011;9489;50.948;3.114;2023-06-14T07:29:55;11.73;;;10.60;;
18720;SDS011;9489;50.948;3.114;2023-06-14T07:32:21;11.18;;;9.98;;
18720;SDS011;9489;50.948;3.114;2023-06-14T07:34:46;10.60;;;9.57;;
18720;SDS011;9489;50.948;3.114;2023-06-14T07:37:12;10.25;;;9.32;;
18720;SDS011;9489;50.948;3.114;2023-06-14T07:39:38;10.75;;;9.98;;
18720;SDS011;9489;50.948;3.114;2023-06-14T07:42:04;10.60;;;9.65;;
18720;SDS011;9489;50.948;3.114;2023-06-14T07:44:30;10.70;;;9.70;;
18720;SDS011;9489;50.948;3.114;2023-06-14T07:46:58;10.82;;;9.50;;
18720;SDS011;9489;50.948;3.114;2023-06-14T07:49:25;10.88;;;9.88;;
18720;SDS011;9489;50.948;3.114;2023-06-14T07:51:51;10.65;;;9.55;;
18720;SDS011;9489;50.948;3.114;2023-06-14T07:54:18;11.35;;;10.23;;
18720;SDS011;9489;50.948;3.114;2023-06-14T07:56:49;10.55;;;9.35;;
18720;SDS011;9489;50.948;3.114;2023-06-14T07:59:15;10.48;;;9.63;;
18720;SDS011;9489;50.948;3.114;2023-06-14T08:01:41;10.40;;;9.50;;
18720;SDS011;9489;50.948;3.114;2023-06-14T08:04:12;9.43;;;8.57;;
18720;SDS011;9489;50.948;3.114;2023-06-14T08:06:37;11.00;;;9.70;;
18720;SDS011;9489;50.948;3.114;2023-06-14T08:09:04;9.65;;;8.98;;
18720;SDS011;9489;50.948;3.114;2023-06-14T08:11:30;10.73;;;9.77;;
18720;SDS011;9489;50.948;3.114;2023-06-14T08:13:56;11.30;;;9.27;;
18720;SDS011;9489;50.948;3.114;2023-06-14T08:16:22;9.60;;;8.77;;
18720;SDS011;9489;50.948;3.114;2023-06-14T08:18:48;8.45;;;7.85;;
18720;SDS011;9489;50.948;3.114;2023-06-14T08:21:14;10.07;;;9.38;;
18720;SDS011;9489;50.948;3.114;2023-06-14T08:23:40;9.48;;;8.73;;
18720;SDS011;9489;50.948;3.114;2023-06-14T08:26:08;11.45;;;10.25;;
18720;SDS011;9489;50.948;3.114;2023-06-14T08:28:34;10.75;;;9.65;;
18720;SDS011;9489;50.948;3.114;2023-06-14T08:30:59;10.05;;;9.15;;
18720;SDS011;9489;50.948;3.114;2023-06-14T08:33:25;9.27;;;8.35;;
18720;SDS011;9489;50.948;3.114;2023-06-14T08:35:51;9.95;;;9.10;;
18720;SDS011;9489;50.948;3.114;2023-06-14T08:38:16;10.55;;;9.65;;
18720;SDS011;9489;50.948;3.114;2023-06-14T08:40:42;9.40;;;8.70;;
18720;SDS011;9489;50.948;3.114;2023-06-14T08:43:08;10.50;;;9.43;;
18720;SDS011;9489;50.948;3.114;2023-06-14T08:45:34;9.55;;;8.65;;
18720;SDS011;9489;50.948;3.114;2023-06-14T08:48:00;10.13;;;9.13;;
18720;SDS011;9489;50.948;3.114;2023-06-14T08:50:27;9.48;;;8.57;;
18720;SDS011;9489;50.948;3.114;2023-06-14T08:52:57;8.75;;;7.95;;
18720;SDS011;9489;50.948;3.114;2023-06-14T08:55:27;8.52;;;7.82;;
18720;SDS011;9489;50.948;3.114;2023-06-14T08:57:54;8.63;;;7.82;;
18720;SDS011;9489;50.948;3.114;2023-06-14T09:00:23;8.10;;;7.40;;
18720;SDS011;9489;50.948;3.114;2023-06-14T09:02:50;8.02;;;6.70;;
18720;SDS011;9489;50.948;3.114;2023-06-14T09:05:22;8.05;;;7.47;;
18720;SDS011;9489;50.948;3.114;2023-06-14T09:07:51;7.88;;;7.07;;
18720;SDS011;9489;50.948;3.114;2023-06-14T09:10:17;8.18;;;7.43;;
18720;SDS011;9489;50.948;3.114;2023-06-14T09:12:43;7.32;;;6.82;;
18720;SDS011;9489;50.948;3.114;2023-06-14T09:15:09;6.90;;;6.22;;
18720;SDS011;9489;50.948;3.114;2023-06-14T09:17:36;7.40;;;6.75;;
18720;SDS011;9489;50.948;3.114;2023-06-14T09:20:04;8.10;;;7.35;;
18720;SDS011;9489;50.948;3.114;2023-06-14T09:22:34;7.07;;;6.40;;
18720;SDS011;9489;50.948;3.114;2023-06-14T09:25:00;8.05;;;7.32;;
18720;SDS011;9489;50.948;3.114;2023-06-14T09:27:27;7.75;;;7.05;;
18720;SDS011;9489;50.948;3.114;2023-06-14T09:29:53;7.47;;;6.85;;
18720;SDS011;9489;50.948;3.114;2023-06-14T09:32:19;7.25;;;6.55;;
18720;SDS011;9489;50.948;3.114;2023-06-14T09:34:45;6.57;;;5.97;;
18720;SDS011;9489;50.948;3.114;2023-06-14T09:37:11;7.82;;;7.18;;
18720;SDS011;9489;50.948;3.114;2023-06-14T09:39:49;7.15;;;6.65;;
18720;SDS011;9489;50.948;3.114;2023-06-14T09:42:16;6.93;;;6.38;;
18720;SDS011;9489;50.948;3.114;2023-06-14T09:44:48;7.63;;;7.07;;
18720;SDS011;9489;50.948;3.114;2023-06-14T09:47:15;7.50;;;6.90;;
18720;SDS011;9489;50.948;3.114;2023-06-14T09:49:41;9.05;;;7.18;;
18720;SDS011;9489;50.948;3.114;2023-06-14T09:52:08;7.90;;;7.30;;
18720;SDS011;9489;50.948;3.114;2023-06-14T09:54:39;6.90;;;6.20;;
18720;SDS011;9489;50.948;3.114;2023-06-14T09:57:08;6.70;;;6.10;;
18720;SDS011;9489;50.948;3.114;2023-06-14T09:59:36;7.25;;;6.63;;
18720;SDS011;9489;50.948;3.114;2023-06-14T10:02:11;7.47;;;6.97;;
18720;SDS011;9489;50.948;3.114;2023-06-14T10:05:07;6.72;;;6.25;;
18720;SDS011;9489;50.948;3.114;2023-06-14T10:07:40;7.25;;;6.60;;
18720;SDS011;9489;50.948;3.114;2023-06-14T10:10:09;8.48;;;7.57;;
18720;SDS011;9489;50.948;3.114;2023-06-14T10:12:35;7.28;;;6.78;;
18720;SDS011;9489;50.948;3.114;2023-06-14T10:15:01;7.95;;;7.15;;
18720;SDS011;9489;50.948;3.114;2023-06-14T10:22:49;7.05;;;6.55;;
18720;SDS011;9489;50.948;3.114;2023-06-14T10:25:27;10.80;;;7.50;;
18720;SDS011;9489;50.948;3.114;2023-06-14T10:31:03;7.47;;;6.88;;
18720;SDS011;9489;50.948;3.114;2023-06-14T10:33:56;7.60;;;7.03;;
18720;SDS011;9489;50.948;3.114;2023-06-14T10:41:42;7.90;;;7.20;;
18720;SDS011;9489;50.948;3.114;2023-06-14T10:46:46;6.78;;;6.35;;
18720;SDS011;9489;50.948;3.114;2023-06-14T10:49:12;6.97;;;6.55;;
18720;SDS011;9489;50.948;3.114;2023-06-14T10:51:44;7.25;;;6.65;;
18720;SDS011;9489;50.948;3.114;2023-06-14T10:54:14;6.80;;;6.30;;
18720;SDS011;9489;50.948;3.114;2023-06-14T10:59:13;7.60;;;7.00;;
18720;SDS011;9489;50.948;3.114;2023-06-14T11:04:27;7.32;;;6.72;;
18720;SDS011;9489;50.948;3.114;2023-06-14T11:10:39;7.28;;;6.68;;
18720;SDS011;9489;50.948;3.114;2023-06-14T11:13:06;7.95;;;7.15;;
18720;SDS011;9489;50.948;3.114;2023-06-14T11:15:34;7.43;;;6.82;;
18720;SDS011;9489;50.948;3.114;2023-06-14T11:18:04;7.50;;;6.90;;
18720;SDS011;9489;50.948;3.114;2023-06-14T11:20:33;7.90;;;7.30;;
18720;SDS011;9489;50.948;3.114;2023-06-14T11:23:00;8.00;;;7.22;;
18720;SDS011;9489;50.948;3.114;2023-06-14T11:25:26;7.20;;;6.53;;
18720;SDS011;9489;50.948;3.114;2023-06-14T11:27:55;7.97;;;7.38;;
18720;SDS011;9489;50.948;3.114;2023-06-14T11:30:22;7.78;;;7.07;;
18720;SDS011;9489;50.948;3.114;2023-06-14T11:32:48;7.70;;;7.00;;
18720;SDS011;9489;50.948;3.114;2023-06-14T11:35:17;7.38;;;6.78;;
18720;SDS011;9489;50.948;3.114;2023-06-14T11:37:43;7.85;;;7.18;;
18720;SDS011;9489;50.948;3.114;2023-06-14T11:40:09;7.30;;;6.70;;
18720;SDS011;9489;50.948;3.114;2023-06-14T11:42:37;7.80;;;7.10;;
18720;SDS011;9489;50.948;3.114;2023-06-14T11:45:04;7.93;;;7.13;;
18720;SDS011;9489;50.948;3.114;2023-06-14T11:47:32;8.07;;;7.47;;
18720;SDS011;9489;50.948;3.114;2023-06-14T11:49:59;7.68;;;7.10;;
18720;SDS011;9489;50.948;3.114;2023-06-14T11:52:25;7.43;;;6.82;;
18720;SDS011;9489;50.948;3.114;2023-06-14T11:54:51;8.40;;;7.68;;
18720;SDS011;9489;50.948;3.114;2023-06-14T11:57:20;8.00;;;7.30;;
18720;SDS011;9489;50.948;3.114;2023-06-14T11:59:46;6.95;;;6.32;;
18720;SDS011;9489;50.948;3.114;2023-06-14T12:02:15;7.35;;;6.85;;
18720;SDS011;9489;50.948;3.114;2023-06-14T12:04:42;7.20;;;6.60;;
18720;SDS011;9489;50.948;3.114;2023-06-14T12:07:08;7.93;;;7.22;;
18720;SDS011;9489;50.948;3.114;2023-06-14T12:09:37;6.95;;;6.35;;
18720;SDS011;9489;50.948;3.114;2023-06-14T12:12:03;7.07;;;6.47;;
18720;SDS011;9489;50.948;3.114;2023-06-14T12:14:29;8.00;;;6.80;;
18720;SDS011;9489;50.948;3.114;2023-06-14T12:17:03;7.95;;;7.25;;
18720;SDS011;9489;50.948;3.114;2023-06-14T12:19:33;6.97;;;6.47;;
18720;SDS011;9489;50.948;3.114;2023-06-14T12:22:06;7.80;;;7.20;;
18720;SDS011;9489;50.948;3.114;2023-06-14T12:24:34;7.28;;;6.57;;
18720;SDS011;9489;50.948;3.114;2023-06-14T12:26:59;6.78;;;6.22;;
18720;SDS011;9489;50.948;3.114;2023-06-14T12:29:27;7.18;;;6.68;;
18720;SDS011;9489;50.948;3.114;2023-06-14T12:31:53;8.23;;;7.00;;
18720;SDS011;9489;50.948;3.114;2023-06-14T12:34:21;6.70;;;6.10;;
18720;SDS011;9489;50.948;3.114;2023-06-14T12:36:47;6.35;;;5.95;;
18720;SDS011;9489;50.948;3.114;2023-06-14T12:39:13;7.32;;;6.82;;
18720;SDS011;9489;50.948;3.114;2023-06-14T12:41:39;6.70;;;6.20;;
18720;SDS011;9489;50.948;3.114;2023-06-14T12:44:06;7.05;;;6.55;;
18720;SDS011;9489;50.948;3.114;2023-06-14T12:46:32;7.05;;;6.45;;
18720;SDS011;9489;50.948;3.114;2023-06-14T12:48:58;6.80;;;6.30;;
18720;SDS011;9489;50.948;3.114;2023-06-14T12:51:24;6.55;;;6.05;;
18720;SDS011;9489;50.948;3.114;2023-06-14T12:53:50;6.53;;;6.03;;
18720;SDS011;9489;50.948;3.114;2023-06-14T12:56:16;7.40;;;6.78;;
18720;SDS011;9489;50.948;3.114;2023-06-14T12:58:42;6.57;;;6.18;;
18720;SDS011;9489;50.948;3.114;2023-06-14T13:01:08;7.55;;;6.93;;
18720;SDS011;9489;50.948;3.114;2023-06-14T13:03:33;7.73;;;7.10;;
18720;SDS011;9489;50.948;3.114;2023-06-14T13:05:59;7.85;;;6.60;;
18720;SDS011;9489;50.948;3.114;2023-06-14T13:08:26;6.88;;;6.28;;
18720;SDS011;9489;50.948;3.114;2023-06-14T13:10:53;7.78;;;6.10;;
18720;SDS011;9489;50.948;3.114;2023-06-14T13:13:18;7.13;;;6.43;;
18720;SDS011;9489;50.948;3.114;2023-06-14T13:15:44;6.00;;;5.50;;
18720;SDS011;9489;50.948;3.114;2023-06-14T13:18:11;7.07;;;6.47;;
18720;SDS011;9489;50.948;3.114;2023-06-14T13:20:40;7.00;;;6.40;;
18720;SDS011;9489;50.948;3.114;2023-06-14T13:23:07;7.53;;;6.82;;
18720;SDS011;9489;50.948;3.114;2023-06-14T13:25:36;7.28;;;6.57;;
18720;SDS011;9489;50.948;3.114;2023-06-14T13:28:03;6.88;;;6.28;;
18720;SDS011;9489;50.948;3.114;2023-06-14T13:30:30;7.10;;;6.50;;
18720;SDS011;9489;50.948;3.114;2023-06-14T13:32:57;6.85;;;6.28;;
18720;SDS011;9489;50.948;3.114;2023-06-14T13:35:23;7.45;;;6.32;;
18720;SDS011;9489;50.948;3.114;2023-06-14T13:37:49;7.22;;;6.53;;
18720;SDS011;9489;50.948;3.114;2023-06-14T13:40:15;7.15;;;6.55;;
18720;SDS011;9489;50.948;3.114;2023-06-14T13:42:41;7.03;;;6.43;;
18720;SDS011;9489;50.948;3.114;2023-06-14T13:45:07;6.57;;;6.13;;
18720;SDS011;9489;50.948;3.114;2023-06-14T13:47:33;6.65;;;6.15;;
18720;SDS011;9489;50.948;3.114;2023-06-14T13:49:59;7.15;;;6.47;;
18720;SDS011;9489;50.948;3.114;2023-06-14T13:52:25;7.15;;;6.20;;
18720;SDS011;9489;50.948;3.114;2023-06-14T13:54:51;6.70;;;6.20;;
18720;SDS011;9489;50.948;3.114;2023-06-14T13:57:17;7.97;;;7.25;;
18720;SDS011;9489;50.948;3.114;2023-06-14T13:59:43;7.18;;;6.47;;
18720;SDS011;9489;50.948;3.114;2023-06-14T14:02:09;6.63;;;6.13;;
18720;SDS011;9489;50.948;3.114;2023-06-14T14:04:36;7.47;;;6.50;;
18720;SDS011;9489;50.948;3.114;2023-06-14T14:07:03;7.05;;;6.30;;
18720;SDS011;9489;50.948;3.114;2023-06-14T14:09:29;7.60;;;6.93;;
18720;SDS011;9489;50.948;3.114;2023-06-14T14:11:55;6.90;;;6.38;;
18720;SDS011;9489;50.948;3.114;2023-06-14T14:14:21;7.00;;;6.40;;
18720;SDS011;9489;50.948;3.114;2023-06-14T14:16:48;7.25;;;6.70;;
18720;SDS011;9489;50.948;3.114;2023-06-14T14:19:16;6.80;;;6.25;;
18720;SDS011;9489;50.948;3.114;2023-06-14T14:21:44;7.63;;;7.00;;
18720;SDS011;9489;50.948;3.114;2023-06-14T14:24:09;7.47;;;6.70;;
18720;SDS011;9489;50.948;3.114;2023-06-14T14:26:35;6.55;;;5.95;;
18720;SDS011;9489;50.948;3.114;2023-06-14T14:29:01;7.55;;;6.93;;
18720;SDS011;9489;50.948;3.114;2023-06-14T14:31:27;6.38;;;5.88;;
18720;SDS011;9489;50.948;3.114;2023-06-14T14:33:53;6.55;;;6.03;;
18720;SDS011;9489;50.948;3.114;2023-06-14T14:36:19;7.82;;;7.20;;
18720;SDS011;9489;50.948;3.114;2023-06-14T14:38:45;6.43;;;5.82;;
18720;SDS011;9489;50.948;3.114;2023-06-14T14:41:12;6.78;;;6.20;;
18720;SDS011;9489;50.948;3.114;2023-06-14T14:43:38;7.57;;;6.97;;
18720;SDS011;9489;50.948;3.114;2023-06-14T14:46:03;7.38;;;6.68;;
18720;SDS011;9489;50.948;3.114;2023-06-14T14:48:29;7.05;;;6.40;;
18720;SDS011;9489;50.948;3.114;2023-06-14T14:50:55;6.57;;;6.00;;
18720;SDS011;9489;50.948;3.114;2023-06-14T14:53:21;6.45;;;6.05;;
18720;SDS011;9489;50.948;3.114;2023-06-14T14:55:46;6.32;;;5.82;;
18720;SDS011;9489;50.948;3.114;2023-06-14T14:58:12;7.80;;;7.10;;
18720;SDS011;9489;50.948;3.114;2023-06-14T15:00:42;6.57;;;5.90;;
18720;SDS011;9489;50.948;3.114;2023-06-14T15:03:07;6.80;;;6.20;;
18720;SDS011;9489;50.948;3.114;2023-06-14T15:05:33;6.72;;;6.05;;
18720;SDS011;9489;50.948;3.114;2023-06-14T15:07:59;6.93;;;6.40;;
18720;SDS011;9489;50.948;3.114;2023-06-14T15:10:24;6.25;;;5.85;;
18720;SDS011;9489;50.948;3.114;2023-06-14T15:12:50;6.57;;;6.00;;
18720;SDS011;9489;50.948;3.114;2023-06-14T15:15:16;6.50;;;5.97;;